createdAt,value
2019-06-27T00:04:42.175Z,17.50
2019-06-27T00:10:46.786Z,17.30
2019-06-27T00:16:53.155Z,17.10
2019-06-27T00:22:57.727Z,17.00
2019-06-27T00:29:02.291Z,17.00
2019-06-27T00:35:08.533Z,16.90
2019-06-27T00:41:13.098Z,16.80
2019-06-27T00:47:17.661Z,16.70
2019-06-27T00:53:22.223Z,16.70
2019-06-27T00:59:26.772Z,16.80
2019-06-27T01:05:31.447Z,16.90
2019-06-27T01:11:35.998Z,16.70
2019-06-27T01:17:40.637Z,16.70
2019-06-27T01:23:45.294Z,16.70
2019-06-27T01:29:50.511Z,16.50
2019-06-27T01:35:55.066Z,16.30
2019-06-27T01:41:59.631Z,16.10
2019-06-27T01:48:04.268Z,16.10
2019-06-27T01:54:08.835Z,16.10
2019-06-27T02:00:14.004Z,16.00
2019-06-27T02:06:18.562Z,16.00
2019-06-27T02:12:23.188Z,16.00
2019-06-27T02:18:27.764Z,16.00
2019-06-27T02:24:32.337Z,16.00
2019-06-27T02:30:44.909Z,16.10
2019-06-27T02:36:49.470Z,16.20
2019-06-27T02:42:54.203Z,16.20
2019-06-27T02:48:58.795Z,16.20
2019-06-27T02:55:03.418Z,16.10
2019-06-27T03:01:07.975Z,16.00
2019-06-27T03:07:12.533Z,16.00
2019-06-27T03:13:17.179Z,16.00
2019-06-27T03:19:23.279Z,16.10
2019-06-27T03:25:27.840Z,16.00
2019-06-27T03:31:32.404Z,16.00
2019-06-27T03:37:36.958Z,15.90
2019-06-27T03:43:41.540Z,15.80
2019-06-27T03:49:46.096Z,15.90
2019-06-27T03:55:51.383Z,15.90
2019-06-27T04:01:56.019Z,16.00
2019-06-27T04:08:00.582Z,16.10
2019-06-27T04:14:05.230Z,16.00
2019-06-27T04:20:10.238Z,16.00
2019-06-27T04:26:14.799Z,16.00
2019-06-27T04:32:19.706Z,16.00
2019-06-27T04:38:24.272Z,15.90
2019-06-27T04:44:29.006Z,15.90
2019-06-27T04:50:33.563Z,16.00
2019-06-27T04:56:38.145Z,16.00
2019-06-27T05:02:42.711Z,16.10
2019-06-27T05:08:47.288Z,16.10
2019-06-27T05:14:51.897Z,16.30
2019-06-27T05:20:56.496Z,16.30
2019-06-27T05:27:01.073Z,16.30
2019-06-27T05:33:05.715Z,16.20
2019-06-27T05:39:10.273Z,16.00
2019-06-27T05:45:15.066Z,16.00
2019-06-27T05:51:19.720Z,15.90
2019-06-27T05:57:24.267Z,16.10
2019-06-27T06:03:28.832Z,16.20
2019-06-27T06:09:33.399Z,16.20
2019-06-27T06:15:37.973Z,16.20
2019-06-27T06:21:42.539Z,16.20
2019-06-27T06:27:47.103Z,16.60
2019-06-27T06:33:51.679Z,16.80
2019-06-27T06:39:56.240Z,17.20
2019-06-27T06:46:00.825Z,17.60
2019-06-27T06:52:05.545Z,17.90
2019-06-27T06:58:10.101Z,18.30
2019-06-27T07:04:14.663Z,18.70
2019-06-27T07:10:20.036Z,18.90
2019-06-27T07:16:24.597Z,18.70
2019-06-27T07:22:29.159Z,18.40
2019-06-27T07:28:33.734Z,18.50
2019-06-27T07:34:38.279Z,18.50
2019-06-27T07:40:42.847Z,18.60
2019-06-27T07:46:47.444Z,18.70
2019-06-27T07:52:52.028Z,19.30
2019-06-27T07:58:56.599Z,19.80
2019-06-27T08:05:01.186Z,20.20
2019-06-27T08:11:05.811Z,20.70
2019-06-27T08:17:10.574Z,20.90
2019-06-27T08:23:15.278Z,21.00
2019-06-27T08:29:19.908Z,21.00
2019-06-27T08:35:24.540Z,21.20
2019-06-27T08:41:29.919Z,21.40
2019-06-27T08:47:34.524Z,21.20
2019-06-27T08:53:39.093Z,21.70
2019-06-27T08:59:43.641Z,21.90
2019-06-27T09:05:48.235Z,22.20
2019-06-27T09:11:52.871Z,22.50
2019-06-27T09:17:57.456Z,22.70
2019-06-27T09:24:02.024Z,22.90
2019-06-27T09:30:09.024Z,22.80
2019-06-27T09:36:13.579Z,23.10
2019-06-27T09:42:18.141Z,23.20
2019-06-27T09:48:22.723Z,23.60
2019-06-27T09:54:27.273Z,24.00
2019-06-27T10:00:31.991Z,23.90
2019-06-27T10:06:36.632Z,23.40
2019-06-27T10:12:43.152Z,23.50
2019-06-27T10:18:47.713Z,24.00
2019-06-27T10:24:52.317Z,23.70
2019-06-27T10:30:57.092Z,24.30
2019-06-27T10:37:01.650Z,24.70
2019-06-27T10:43:06.288Z,24.80
2019-06-27T10:49:10.856Z,25.00
2019-06-27T10:55:15.560Z,25.20
2019-06-27T11:01:20.213Z,25.20
2019-06-27T11:07:24.773Z,25.40
2019-06-27T11:13:29.341Z,26.00
2019-06-27T11:19:33.973Z,26.50
2019-06-27T11:25:38.530Z,26.20
2019-06-27T11:31:43.091Z,26.40
2019-06-27T11:37:47.648Z,26.00
2019-06-27T11:43:52.214Z,26.60
2019-06-27T11:49:56.770Z,27.00
2019-06-27T11:56:01.403Z,27.00
2019-06-27T12:02:05.985Z,27.20
2019-06-27T12:08:11.109Z,27.30
2019-06-27T12:14:15.802Z,27.20
2019-06-27T12:20:20.671Z,27.30
2019-06-27T12:26:25.235Z,27.30
2019-06-27T12:32:29.798Z,27.80
2019-06-27T12:38:34.377Z,27.50
2019-06-27T12:44:38.994Z,27.80
2019-06-27T12:50:43.554Z,28.40
2019-06-27T12:56:48.720Z,28.40
2019-06-27T13:02:53.282Z,28.90
2019-06-27T13:08:57.841Z,29.10
2019-06-27T13:15:02.480Z,28.70
2019-06-27T13:21:07.200Z,29.10
2019-06-27T13:27:11.776Z,29.50
2019-06-27T13:33:16.525Z,29.50
2019-06-27T13:39:21.160Z,30.00
2019-06-27T13:45:26.756Z,30.10
2019-06-27T13:51:31.433Z,30.50
2019-06-27T13:57:36.067Z,30.50
2019-06-27T14:03:49.261Z,30.40
2019-06-27T14:09:53.674Z,30.40
2019-06-27T14:15:53.257Z,29.90
2019-06-27T14:21:58.985Z,29.40
2019-06-27T14:28:03.687Z,29.10
2019-06-27T14:34:08.322Z,29.80
2019-06-27T14:40:13.803Z,29.40
2019-06-27T14:46:18.449Z,30.10
2019-06-27T14:52:23.010Z,30.10
2019-06-27T14:58:27.571Z,29.80
2019-06-27T15:04:32.128Z,29.80
2019-06-27T15:10:36.766Z,30.20
2019-06-27T15:16:41.312Z,29.90
2019-06-27T15:22:45.885Z,29.80
2019-06-27T15:28:50.537Z,29.20
2019-06-27T15:34:55.121Z,29.20
2019-06-27T15:40:59.678Z,29.30
2019-06-27T15:47:04.247Z,28.90
2019-06-27T15:53:08.872Z,28.40
2019-06-27T15:59:13.438Z,28.30
2019-06-27T16:05:18.645Z,28.10
2019-06-27T16:11:23.250Z,27.90
2019-06-27T16:17:27.818Z,27.80
2019-06-27T16:23:32.384Z,27.50
2019-06-27T16:29:37.017Z,27.10
2019-06-27T16:35:41.715Z,27.00
2019-06-27T16:41:46.268Z,27.30
2019-06-27T16:47:50.832Z,27.80
2019-06-27T16:53:55.389Z,29.60
2019-06-27T17:00:00.028Z,30.70
2019-06-27T17:06:04.603Z,31.30
2019-06-27T17:12:09.167Z,30.40
2019-06-27T17:18:13.891Z,30.50
2019-06-27T17:24:18.460Z,31.30
2019-06-27T17:30:23.672Z,31.30
2019-06-27T17:36:28.253Z,30.70
2019-06-27T17:42:32.795Z,31.00
2019-06-27T17:48:37.372Z,31.60
2019-06-27T17:54:41.929Z,30.70
2019-06-27T18:00:46.568Z,30.20
2019-06-27T18:06:51.115Z,30.10
2019-06-27T18:12:55.684Z,30.50
2019-06-27T18:19:00.820Z,29.60
2019-06-27T18:25:06.396Z,28.40
2019-06-27T18:31:11.033Z,27.40
2019-06-27T18:37:28.830Z,27.20
2019-06-27T18:43:21.953Z,26.50
2019-06-27T18:49:26.519Z,26.00
2019-06-27T18:55:31.149Z,25.40
2019-06-27T19:01:35.707Z,24.00
2019-06-27T19:07:45.875Z,22.40
2019-06-27T19:13:46.798Z,21.40
2019-06-27T19:19:53.175Z,20.90
2019-06-27T19:25:59.620Z,20.10
2019-06-27T19:32:04.337Z,19.70
2019-06-27T19:38:08.908Z,19.40
2019-06-27T19:44:13.521Z,19.00
2019-06-27T19:50:18.735Z,18.80
2019-06-27T19:56:23.303Z,18.50
2019-06-27T20:02:27.863Z,18.40
2019-06-27T20:08:32.419Z,18.10
2019-06-27T20:14:36.985Z,18.00
2019-06-27T20:20:41.988Z,17.80
2019-06-27T20:26:46.623Z,17.60
2019-06-27T20:32:51.247Z,17.60
2019-06-27T20:38:55.813Z,17.30
2019-06-27T20:45:00.372Z,17.20
2019-06-27T20:51:05.073Z,17.00
2019-06-27T20:57:09.621Z,16.90
2019-06-27T21:03:14.241Z,16.80
2019-06-27T21:09:18.961Z,16.60
2019-06-27T21:15:23.935Z,16.40
2019-06-27T21:21:28.555Z,16.30
2019-06-27T21:27:33.238Z,16.20
2019-06-27T21:33:37.794Z,16.10
2019-06-27T21:39:42.497Z,16.00
2019-06-27T21:45:47.123Z,15.90
2019-06-27T21:51:51.752Z,15.90
2019-06-27T21:57:59.726Z,15.90
2019-06-27T22:04:02.709Z,15.60
2019-06-27T22:10:09.048Z,15.60
2019-06-27T22:16:13.670Z,15.50
2019-06-27T22:22:18.393Z,15.30
2019-06-27T22:28:23.005Z,15.20
2019-06-27T22:34:27.569Z,15.20
2019-06-27T22:40:50.170Z,15.10
2019-06-27T22:47:12.823Z,14.90
2019-06-27T22:53:20.846Z,14.70
2019-06-27T22:59:25.321Z,14.70
2019-06-27T23:05:29.876Z,14.60
2019-06-27T23:11:34.432Z,14.50
2019-06-27T23:17:39.095Z,14.40
2019-06-27T23:23:43.648Z,14.40
2019-06-27T23:29:49.750Z,14.30
2019-06-27T23:35:54.333Z,14.30
2019-06-27T23:41:58.898Z,14.20
2019-06-27T23:48:03.523Z,14.10
2019-06-27T23:54:08.992Z,14.00
